sensor_id;sensor_type;location;lat;lon;timestamp;pressure;altitude;pressure_sealevel;temperature;humidity
46534;BME280;32260;52.008;4.752;2023-05-28T00:00:45;102263.19;;;16.88;60.20
46534;BME280;32260;52.008;4.752;2023-05-28T00:03:12;102267.69;;;16.86;60.41
46534;BME280;32260;52.008;4.752;2023-05-28T00:05:38;102266.84;;;16.84;61.22
46534;BME280;32260;52.008;4.752;2023-05-28T00:08:04;102258.84;;;16.82;61.76
46534;BME280;32260;52.008;4.752;2023-05-28T00:10:30;102258.88;;;16.80;62.74
46534;BME280;32260;52.008;4.752;2023-05-28T00:12:56;102254.44;;;16.81;60.88
46534;BME280;32260;52.008;4.752;2023-05-28T00:15:22;102255.34;;;16.78;62.36
46534;BME280;32260;52.008;4.752;2023-05-28T00:17:49;102250.94;;;16.76;61.74
46534;BME280;32260;52.008;4.752;2023-05-28T00:20:18;102258.97;;;16.77;60.83
46534;BME280;32260;52.008;4.752;2023-05-28T00:22:45;102260.78;;;16.75;61.89
46534;BME280;32260;52.008;4.752;2023-05-28T00:25:11;102251.91;;;16.73;61.26
46534;BME280;32260;52.008;4.752;2023-05-28T00:27:38;102255.50;;;16.72;62.00
46534;BME280;32260;52.008;4.752;2023-05-28T00:30:04;102261.75;;;16.73;61.37
46534;BME280;32260;52.008;4.752;2023-05-28T00:32:31;102252.00;;;16.70;62.05
46534;BME280;32260;52.008;4.752;2023-05-28T00:34:57;102239.56;;;16.68;61.15
46534;BME280;32260;52.008;4.752;2023-05-28T00:37:23;102229.78;;;16.66;62.40
46534;BME280;32260;52.008;4.752;2023-05-28T00:39:49;102238.72;;;16.65;62.32
46534;BME280;32260;52.008;4.752;2023-05-28T00:42:15;102230.72;;;16.64;61.68
46534;BME280;32260;52.008;4.752;2023-05-28T00:44:41;102228.97;;;16.63;62.78
46534;BME280;32260;52.008;4.752;2023-05-28T00:47:09;102223.59;;;16.63;63.10
46534;BME280;32260;52.008;4.752;2023-05-28T00:49:35;102220.94;;;16.63;62.66
46534;BME280;32260;52.008;4.752;2023-05-28T00:52:03;102218.34;;;16.60;62.79
46534;BME280;32260;52.008;4.752;2023-05-28T00:54:30;102221.84;;;16.62;63.02
46534;BME280;32260;52.008;4.752;2023-05-28T00:56:57;102220.16;;;16.58;63.46
46534;BME280;32260;52.008;4.752;2023-05-28T00:59:25;102211.22;;;16.57;63.46
46534;BME280;32260;52.008;4.752;2023-05-28T01:01:51;102214.88;;;16.55;63.40
46534;BME280;32260;52.008;4.752;2023-05-28T01:04:17;102220.31;;;16.52;62.62
46534;BME280;32260;52.008;4.752;2023-05-28T01:06:45;102218.53;;;16.50;63.37
46534;BME280;32260;52.008;4.752;2023-05-28T01:09:12;102216.78;;;16.49;63.05
46534;BME280;32260;52.008;4.752;2023-05-28T01:11:40;102220.34;;;16.50;63.08
46534;BME280;32260;52.008;4.752;2023-05-28T01:14:09;102213.22;;;16.49;62.74
46534;BME280;32260;52.008;4.752;2023-05-28T01:16:35;102216.84;;;16.46;63.12
46534;BME280;32260;52.008;4.752;2023-05-28T01:19:03;102214.22;;;16.45;63.17
46534;BME280;32260;52.008;4.752;2023-05-28T01:21:34;102206.00;;;16.53;63.45
46534;BME280;32260;52.008;4.752;2023-05-28T01:24:03;102209.03;;;16.37;63.11
46534;BME280;32260;52.008;4.752;2023-05-28T01:26:30;102213.59;;;16.32;62.52
46534;BME280;32260;52.008;4.752;2023-05-28T01:28:56;102211.91;;;16.28;62.58
46534;BME280;32260;52.008;4.752;2023-05-28T01:31:23;102212.88;;;16.25;62.29
46534;BME280;32260;52.008;4.752;2023-05-28T01:33:49;102213.81;;;16.23;62.51
46534;BME280;32260;52.008;4.752;2023-05-28T01:36:22;102207.59;;;16.21;62.69
46534;BME280;32260;52.008;4.752;2023-05-28T01:38:50;102217.44;;;16.18;62.34
46534;BME280;32260;52.008;4.752;2023-05-28T01:41:18;102218.38;;;16.17;62.16
46534;BME280;32260;52.008;4.752;2023-05-28T01:43:46;102214.91;;;16.12;63.66
46534;BME280;32260;52.008;4.752;2023-05-28T01:46:13;102219.44;;;16.10;63.12
46534;BME280;32260;52.008;4.752;2023-05-28T01:48:39;102226.59;;;16.08;62.61
46534;BME280;32260;52.008;4.752;2023-05-28T01:51:06;102226.66;;;16.05;62.29
46534;BME280;32260;52.008;4.752;2023-05-28T01:53:32;102230.25;;;16.04;62.72
46534;BME280;32260;52.008;4.752;2023-05-28T01:55:58;102224.09;;;16.00;63.47
46534;BME280;32260;52.008;4.752;2023-05-28T01:58:24;102230.34;;;15.99;62.95
46534;BME280;32260;52.008;4.752;2023-05-28T02:01:03;102229.31;;;16.07;62.87
46534;BME280;32260;52.008;4.752;2023-05-28T02:03:35;102229.38;;;16.02;63.23
46534;BME280;32260;52.008;4.752;2023-05-28T02:06:01;102223.25;;;15.97;62.67
46534;BME280;32260;52.008;4.752;2023-05-28T02:08:27;102223.34;;;15.94;63.34
46534;BME280;32260;52.008;4.752;2023-05-28T02:10:53;102223.38;;;15.91;61.72
46534;BME280;32260;52.008;4.752;2023-05-28T02:13:19;102229.59;;;15.91;62.41
46534;BME280;32260;52.008;4.752;2023-05-28T02:15:45;102219.84;;;15.89;62.90
46534;BME280;32260;52.008;4.752;2023-05-28T02:18:13;102219.06;;;15.85;63.75
46534;BME280;32260;52.008;4.752;2023-05-28T02:20:39;102218.19;;;15.83;63.81
46534;BME280;32260;52.008;4.752;2023-05-28T02:23:05;102212.88;;;15.81;63.72
46534;BME280;32260;52.008;4.752;2023-05-28T02:25:31;102211.97;;;15.81;63.66
46534;BME280;32260;52.008;4.752;2023-05-28T02:27:57;102221.81;;;15.79;64.10
46534;BME280;32260;52.008;4.752;2023-05-28T02:30:24;102220.06;;;15.76;64.14
46534;BME280;32260;52.008;4.752;2023-05-28T02:32:50;102221.81;;;15.77;63.30
46534;BME280;32260;52.008;4.752;2023-05-28T02:35:16;102218.31;;;15.75;63.49
46534;BME280;32260;52.008;4.752;2023-05-28T02:37:44;102217.47;;;15.73;63.85
46534;BME280;32260;52.008;4.752;2023-05-28T02:40:10;102223.78;;;15.69;64.05
46534;BME280;32260;52.008;4.752;2023-05-28T02:42:37;102224.72;;;15.65;63.93
46534;BME280;32260;52.008;4.752;2023-05-28T02:45:03;102225.72;;;15.61;64.08
46534;BME280;32260;52.008;4.752;2023-05-28T02:47:30;102222.19;;;15.59;64.37
46534;BME280;32260;52.008;4.752;2023-05-28T02:49:56;102224.88;;;15.57;64.06
46534;BME280;32260;52.008;4.752;2023-05-28T02:52:22;102232.94;;;15.56;63.55
46534;BME280;32260;52.008;4.752;2023-05-28T02:54:48;102236.56;;;15.53;63.86
46534;BME280;32260;52.008;4.752;2023-05-28T02:57:14;102240.16;;;15.50;63.86
46534;BME280;32260;52.008;4.752;2023-05-28T02:59:40;102234.84;;;15.47;63.79
46534;BME280;32260;52.008;4.752;2023-05-28T03:02:07;102218.91;;;15.44;63.87
46534;BME280;32260;52.008;4.752;2023-05-28T03:04:33;102232.31;;;15.41;64.64
46534;BME280;32260;52.008;4.752;2023-05-28T03:07:01;102238.53;;;15.40;64.12
46534;BME280;32260;52.008;4.752;2023-05-28T03:09:27;102239.47;;;15.37;63.95
46534;BME280;32260;52.008;4.752;2023-05-28T03:11:53;102235.06;;;15.35;63.65
46534;BME280;32260;52.008;4.752;2023-05-28T03:14:20;102245.75;;;15.35;64.46
46534;BME280;32260;52.008;4.752;2023-05-28T03:16:46;102232.47;;;15.32;62.95
46534;BME280;32260;52.008;4.752;2023-05-28T03:19:12;102236.00;;;15.32;64.57
46534;BME280;32260;52.008;4.752;2023-05-28T03:21:38;102235.16;;;15.32;64.36
46534;BME280;32260;52.008;4.752;2023-05-28T03:24:05;102228.03;;;15.31;64.18
46534;BME280;32260;52.008;4.752;2023-05-28T03:26:31;102229.84;;;15.29;64.58
46534;BME280;32260;52.008;4.752;2023-05-28T03:28:57;102224.50;;;15.29;63.78
46534;BME280;32260;52.008;4.752;2023-05-28T03:31:27;102230.78;;;15.28;64.07
46534;BME280;32260;52.008;4.752;2023-05-28T03:33:53;102235.25;;;15.26;63.96
46534;BME280;32260;52.008;4.752;2023-05-28T03:36:19;102242.41;;;15.24;64.46
46534;BME280;32260;52.008;4.752;2023-05-28T03:38:46;102244.16;;;15.25;64.35
46534;BME280;32260;52.008;4.752;2023-05-28T03:41:12;102242.41;;;15.24;64.91
46534;BME280;32260;52.008;4.752;2023-05-28T03:43:38;102254.00;;;15.21;64.09
46534;BME280;32260;52.008;4.752;2023-05-28T03:46:04;102247.81;;;15.20;63.97
46534;BME280;32260;52.008;4.752;2023-05-28T03:48:30;102251.38;;;15.19;64.67
46534;BME280;32260;52.008;4.752;2023-05-28T03:50:56;102244.28;;;15.18;64.30
46534;BME280;32260;52.008;4.752;2023-05-28T03:53:22;102248.75;;;15.18;64.62
46534;BME280;32260;52.008;4.752;2023-05-28T03:55:49;102247.84;;;15.17;64.78
46534;BME280;32260;52.008;4.752;2023-05-28T03:58:17;102248.75;;;15.16;65.01
46534;BME280;32260;52.008;4.752;2023-05-28T04:00:44;102247.84;;;15.17;64.83
46534;BME280;32260;52.008;4.752;2023-05-28T04:03:10;102249.69;;;15.15;65.11
46534;BME280;32260;52.008;4.752;2023-05-28T04:05:36;102242.56;;;15.14;64.91
46534;BME280;32260;52.008;4.752;2023-05-28T04:08:02;102246.13;;;15.13;64.96
46534;BME280;32260;52.008;4.752;2023-05-28T04:10:28;102245.25;;;15.14;65.21
46534;BME280;32260;52.008;4.752;2023-05-28T04:12:54;102251.47;;;15.13;64.78
46534;BME280;32260;52.008;4.752;2023-05-28T04:15:22;102245.28;;;15.11;64.74
46534;BME280;32260;52.008;4.752;2023-05-28T04:17:48;102243.50;;;15.10;65.12
46534;BME280;32260;52.008;4.752;2023-05-28T04:20:14;102246.19;;;15.10;65.05
46534;BME280;32260;52.008;4.752;2023-05-28T04:22:40;102245.28;;;15.11;65.39
46534;BME280;32260;52.008;4.752;2023-05-28T04:25:06;102247.06;;;15.11;64.64
46534;BME280;32260;52.008;4.752;2023-05-28T04:27:33;102255.06;;;15.12;64.58
46534;BME280;32260;52.008;4.752;2023-05-28T04:29:59;102262.16;;;15.13;64.71
46534;BME280;32260;52.008;4.752;2023-05-28T04:32:25;102259.50;;;15.13;64.42
46534;BME280;32260;52.008;4.752;2023-05-28T04:34:51;102259.50;;;15.13;64.37
46534;BME280;32260;52.008;4.752;2023-05-28T04:37:19;102263.97;;;15.13;64.62
46534;BME280;32260;52.008;4.752;2023-05-28T04:39:45;102259.53;;;15.12;65.08
46534;BME280;32260;52.008;4.752;2023-05-28T04:42:11;102262.00;;;15.23;63.57
46534;BME280;32260;52.008;4.752;2023-05-28T04:44:43;102264.66;;;15.24;64.25
46534;BME280;32260;52.008;4.752;2023-05-28T04:47:09;102265.50;;;15.26;64.38
46534;BME280;32260;52.008;4.752;2023-05-28T04:49:35;102262.97;;;15.18;65.38
46534;BME280;32260;52.008;4.752;2023-05-28T04:52:01;102261.16;;;15.20;64.70
46534;BME280;32260;52.008;4.752;2023-05-28T04:54:27;102260.25;;;15.22;63.99
46534;BME280;32260;52.008;4.752;2023-05-28T04:56:53;102260.19;;;15.25;64.79
46534;BME280;32260;52.008;4.752;2023-05-28T04:59:19;102255.72;;;15.25;65.66
46534;BME280;32260;52.008;4.752;2023-05-28T05:01:46;102258.31;;;15.30;65.19
46534;BME280;32260;52.008;4.752;2023-05-28T05:04:13;102268.00;;;15.37;64.62
46534;BME280;32260;52.008;4.752;2023-05-28T05:06:39;102259.97;;;15.37;64.57
46534;BME280;32260;52.008;4.752;2023-05-28T05:09:05;102258.13;;;15.41;64.56
46534;BME280;32260;52.008;4.752;2023-05-28T05:11:32;102261.63;;;15.44;64.86
46534;BME280;32260;52.008;4.752;2023-05-28T05:13:58;102261.56;;;15.47;65.05
46534;BME280;32260;52.008;4.752;2023-05-28T05:16:24;102259.75;;;15.49;64.90
46534;BME280;32260;52.008;4.752;2023-05-28T05:18:52;102260.56;;;15.55;64.89
46534;BME280;32260;52.008;4.752;2023-05-28T05:21:18;102264.94;;;15.59;64.16
46534;BME280;32260;52.008;4.752;2023-05-28T05:23:44;102265.59;;;15.72;64.53
46534;BME280;32260;52.008;4.752;2023-05-28T05:26:10;102265.50;;;15.76;63.89
46534;BME280;32260;52.008;4.752;2023-05-28T05:28:38;102262.75;;;15.81;64.71
46534;BME280;32260;52.008;4.752;2023-05-28T05:31:04;102262.69;;;15.85;64.92
46534;BME280;32260;52.008;4.752;2023-05-28T05:33:31;102265.97;;;16.00;63.79
46534;BME280;32260;52.008;4.752;2023-05-28T05:35:57;102276.53;;;16.06;64.15
46534;BME280;32260;52.008;4.752;2023-05-28T05:38:23;102271.19;;;16.06;64.44
46534;BME280;32260;52.008;4.752;2023-05-28T05:40:49;102272.78;;;16.16;63.42
46534;BME280;32260;52.008;4.752;2023-05-28T05:43:16;102266.41;;;16.22;63.58
46534;BME280;32260;52.008;4.752;2023-05-28T05:45:42;102265.44;;;16.25;63.13
46534;BME280;32260;52.008;4.752;2023-05-28T05:48:08;102263.63;;;16.27;63.20
46534;BME280;32260;52.008;4.752;2023-05-28T05:50:48;102254.50;;;16.37;63.93
46534;BME280;32260;52.008;4.752;2023-05-28T05:53:14;102263.44;;;16.36;63.64
46534;BME280;32260;52.008;4.752;2023-05-28T05:55:40;102257.13;;;16.40;64.03
46534;BME280;32260;52.008;4.752;2023-05-28T05:58:06;102257.91;;;16.45;64.23
46534;BME280;32260;52.008;4.752;2023-05-28T06:00:32;102256.03;;;16.49;63.22
46534;BME280;32260;52.008;4.752;2023-05-28T06:02:59;102257.66;;;16.55;63.11
46534;BME280;32260;52.008;4.752;2023-05-28T06:05:26;102259.38;;;16.59;63.11
46534;BME280;32260;52.008;4.752;2023-05-28T06:07:52;102261.00;;;16.66;62.80
46534;BME280;32260;52.008;4.752;2023-05-28T06:10:18;102264.38;;;16.74;62.93
46534;BME280;32260;52.008;4.752;2023-05-28T06:12:45;102271.31;;;16.83;62.80
46534;BME280;32260;52.008;4.752;2023-05-28T06:15:11;102272.06;;;16.90;63.03
46534;BME280;32260;52.008;4.752;2023-05-28T06:17:37;102272.81;;;16.96;62.44
46534;BME280;32260;52.008;4.752;2023-05-28T06:20:04;102276.22;;;17.03;62.59
46534;BME280;32260;52.008;4.752;2023-05-28T06:22:30;102270.81;;;17.06;62.59
46534;BME280;32260;52.008;4.752;2023-05-28T06:24:56;102264.41;;;17.12;62.37
46534;BME280;32260;52.008;4.752;2023-05-28T06:27:22;102267.88;;;17.17;61.93
46534;BME280;32260;52.008;4.752;2023-05-28T06:29:49;102271.25;;;17.24;61.87
46534;BME280;32260;52.008;4.752;2023-05-28T06:32:15;102267.53;;;17.29;61.74
46534;BME280;32260;52.008;4.752;2023-05-28T06:34:41;102263.91;;;17.32;61.95
46534;BME280;32260;52.008;4.752;2023-05-28T06:37:07;102266.41;;;17.38;61.79
46534;BME280;32260;52.008;4.752;2023-05-28T06:39:33;102260.91;;;17.44;61.83
46534;BME280;32260;52.008;4.752;2023-05-28T06:42:00;102260.81;;;17.48;61.85
46534;BME280;32260;52.008;4.752;2023-05-28T06:44:26;102260.72;;;17.51;61.35
46534;BME280;32260;52.008;4.752;2023-05-28T06:46:52;102269.66;;;17.51;61.34
46534;BME280;32260;52.008;4.752;2023-05-28T06:49:18;102268.78;;;17.51;61.19
46534;BME280;32260;52.008;4.752;2023-05-28T06:51:44;102262.50;;;17.52;61.11
46534;BME280;32260;52.008;4.752;2023-05-28T06:54:11;102265.13;;;17.53;61.05
46534;BME280;32260;52.008;4.752;2023-05-28T06:56:37;102266.81;;;17.57;60.91
46534;BME280;32260;52.008;4.752;2023-05-28T06:59:03;102271.22;;;17.60;60.74
46534;BME280;32260;52.008;4.752;2023-05-28T07:01:29;102267.63;;;17.61;60.81
46534;BME280;32260;52.008;4.752;2023-05-28T07:03:55;102260.41;;;17.63;60.97
46534;BME280;32260;52.008;4.752;2023-05-28T07:06:21;102266.50;;;17.70;60.71
46534;BME280;32260;52.008;4.752;2023-05-28T07:08:48;102269.94;;;17.75;60.89
46534;BME280;32260;52.008;4.752;2023-05-28T07:11:14;102270.63;;;17.82;60.74
46534;BME280;32260;52.008;4.752;2023-05-28T07:13:40;102269.53;;;17.89;60.75
46534;BME280;32260;52.008;4.752;2023-05-28T07:16:07;102269.34;;;17.97;60.62
46534;BME280;32260;52.008;4.752;2023-05-28T07:18:33;102275.44;;;18.03;60.39
46534;BME280;32260;52.008;4.752;2023-05-28T07:21:00;102282.47;;;18.07;60.36
46534;BME280;32260;52.008;4.752;2023-05-28T07:23:26;102290.34;;;18.14;60.21
46534;BME280;32260;52.008;4.752;2023-05-28T07:25:52;102291.00;;;18.22;60.12
46534;BME280;32260;52.008;4.752;2023-05-28T07:28:18;102294.38;;;18.29;60.05
46534;BME280;32260;52.008;4.752;2023-05-28T07:30:44;102297.75;;;18.35;60.02
46534;BME280;32260;52.008;4.752;2023-05-28T07:33:10;102291.22;;;18.44;59.97
46534;BME280;32260;52.008;4.752;2023-05-28T07:35:37;102291.84;;;18.54;59.96
46534;BME280;32260;52.008;4.752;2023-05-28T07:38:03;102287.06;;;18.64;59.62
46534;BME280;32260;52.008;4.752;2023-05-28T07:40:29;102295.72;;;18.73;59.82
46534;BME280;32260;52.008;4.752;2023-05-28T07:42:56;102293.56;;;18.85;59.64
46534;BME280;32260;52.008;4.752;2023-05-28T07:45:22;102292.38;;;18.95;59.35
46534;BME280;32260;52.008;4.752;2023-05-28T07:47:48;102297.47;;;19.04;59.10
46534;BME280;32260;52.008;4.752;2023-05-28T07:50:14;102298.97;;;19.13;58.65
46534;BME280;32260;52.008;4.752;2023-05-28T07:52:40;102289.72;;;19.22;58.65
46534;BME280;32260;52.008;4.752;2023-05-28T07:55:07;102293.97;;;19.29;58.27
46534;BME280;32260;52.008;4.752;2023-05-28T07:57:33;102291.94;;;19.36;58.30
46534;BME280;32260;52.008;4.752;2023-05-28T08:00:00;102295.25;;;19.44;58.00
46534;BME280;32260;52.008;4.752;2023-05-28T08:02:32;102298.44;;;19.55;57.62
46534;BME280;32260;52.008;4.752;2023-05-28T08:04:58;102299.88;;;19.66;57.74
46534;BME280;32260;52.008;4.752;2023-05-28T08:07:27;102292.25;;;19.79;57.64
46534;BME280;32260;52.008;4.752;2023-05-28T08:09:53;102294.75;;;19.85;56.90
46534;BME280;32260;52.008;4.752;2023-05-28T08:12:20;102298.81;;;19.97;56.81
46534;BME280;32260;52.008;4.752;2023-05-28T08:14:46;102294.03;;;20.05;56.86
46534;BME280;32260;52.008;4.752;2023-05-28T08:17:12;102291.84;;;20.15;56.82
46534;BME280;32260;52.008;4.752;2023-05-28T08:19:38;102286.03;;;20.27;56.70
46534;BME280;32260;52.008;4.752;2023-05-28T08:22:05;102289.38;;;20.34;55.15
46534;BME280;32260;52.008;4.752;2023-05-28T08:24:31;102296.09;;;20.46;55.60
46534;BME280;32260;52.008;4.752;2023-05-28T08:26:57;102287.66;;;20.55;55.64
46534;BME280;32260;52.008;4.752;2023-05-28T08:29:23;102285.59;;;20.62;55.33
46534;BME280;32260;52.008;4.752;2023-05-28T08:31:49;102282.66;;;20.68;54.66
46534;BME280;32260;52.008;4.752;2023-05-28T08:34:15;102287.78;;;20.76;54.36
46534;BME280;32260;52.008;4.752;2023-05-28T08:36:42;102279.13;;;20.90;54.83
46534;BME280;32260;52.008;4.752;2023-05-28T08:39:08;102278.00;;;20.95;52.97
46534;BME280;32260;52.008;4.752;2023-05-28T08:41:37;102277.63;;;21.05;53.76
46534;BME280;32260;52.008;4.752;2023-05-28T08:44:03;102273.81;;;21.10;53.90
46534;BME280;32260;52.008;4.752;2023-05-28T08:46:31;102272.72;;;21.14;53.31
46534;BME280;32260;52.008;4.752;2023-05-28T08:48:58;102280.63;;;21.19;52.70
46534;BME280;32260;52.008;4.752;2023-05-28T08:51:24;102273.09;;;21.27;53.26
46534;BME280;32260;52.008;4.752;2023-05-28T08:53:53;102277.00;;;21.41;52.43
46534;BME280;32260;52.008;4.752;2023-05-28T08:56:21;102270.16;;;21.54;52.82
46534;BME280;32260;52.008;4.752;2023-05-28T08:58:47;102273.16;;;21.69;52.43
46534;BME280;32260;52.008;4.752;2023-05-28T09:01:14;102273.47;;;21.81;51.63
46534;BME280;32260;52.008;4.752;2023-05-28T09:03:41;102278.31;;;21.94;51.84
46534;BME280;32260;52.008;4.752;2023-05-28T09:06:08;102274.69;;;22.14;51.28
46534;BME280;32260;52.008;4.752;2023-05-28T09:08:35;102267.78;;;22.27;51.36
46534;BME280;32260;52.008;4.752;2023-05-28T09:11:18;102273.19;;;22.48;51.12
46534;BME280;32260;52.008;4.752;2023-05-28T09:13:47;102273.09;;;22.50;50.05
46534;BME280;32260;52.008;4.752;2023-05-28T09:16:28;102267.31;;;22.57;50.55
46534;BME280;32260;52.008;4.752;2023-05-28T09:19:03;102266.38;;;22.58;50.37
46534;BME280;32260;52.008;4.752;2023-05-28T09:21:30;102264.81;;;22.53;49.47
46534;BME280;32260;52.008;4.752;2023-05-28T09:23:56;102260.44;;;22.50;48.91
46534;BME280;32260;52.008;4.752;2023-05-28T09:26:22;102265.84;;;22.50;49.48
46534;BME280;32260;52.008;4.752;2023-05-28T09:28:50;102269.06;;;22.58;49.47
46534;BME280;32260;52.008;4.752;2023-05-28T09:31:18;102266.94;;;22.65;48.95
46534;BME280;32260;52.008;4.752;2023-05-28T09:33:46;102270.06;;;22.75;48.74
46534;BME280;32260;52.008;4.752;2023-05-28T09:36:16;102272.03;;;22.90;48.77
46534;BME280;32260;52.008;4.752;2023-05-28T09:38:43;102270.31;;;23.07;49.00
46534;BME280;32260;52.008;4.752;2023-05-28T09:41:25;102260.88;;;23.16;47.08
46534;BME280;32260;52.008;4.752;2023-05-28T09:43:59;102267.56;;;23.26;48.35
46534;BME280;32260;52.008;4.752;2023-05-28T09:46:28;102263.84;;;23.29;47.81
46534;BME280;32260;52.008;4.752;2023-05-28T09:48:55;102271.50;;;23.38;47.76
46534;BME280;32260;52.008;4.752;2023-05-28T09:51:26;102261.38;;;23.41;47.08
46534;BME280;32260;52.008;4.752;2023-05-28T09:53:57;102262.03;;;23.47;47.54
46534;BME280;32260;52.008;4.752;2023-05-28T09:56:28;102266.06;;;23.55;47.67
46534;BME280;32260;52.008;4.752;2023-05-28T09:58:58;102270.03;;;23.66;47.66
46534;BME280;32260;52.008;4.752;2023-05-28T10:01:31;102272.09;;;23.78;47.46
46534;BME280;32260;52.008;4.752;2023-05-28T10:04:07;102271.44;;;23.90;46.77
46534;BME280;32260;52.008;4.752;2023-05-28T10:06:34;102264.91;;;23.95;46.88
46534;BME280;32260;52.008;4.752;2023-05-28T10:09:03;102265.88;;;23.94;46.78
46534;BME280;32260;52.008;4.752;2023-05-28T10:11:34;102272.38;;;23.89;46.22
46534;BME280;32260;52.008;4.752;2023-05-28T10:14:02;102267.22;;;23.85;46.38
46534;BME280;32260;52.008;4.752;2023-05-28T10:16:31;102262.31;;;23.75;45.64
46534;BME280;32260;52.008;4.752;2023-05-28T10:18:57;102272.56;;;23.69;45.39
46534;BME280;32260;52.008;4.752;2023-05-28T10:21:24;102275.97;;;23.72;46.69
46534;BME280;32260;52.008;4.752;2023-05-28T10:23:52;102274.63;;;23.64;46.59
46534;BME280;32260;52.008;4.752;2023-05-28T10:26:18;102275.75;;;23.59;46.96
46534;BME280;32260;52.008;4.752;2023-05-28T10:28:45;102274.56;;;23.48;46.22
46534;BME280;32260;52.008;4.752;2023-05-28T10:31:11;102272.13;;;23.43;46.91
46534;BME280;32260;52.008;4.752;2023-05-28T10:33:39;102269.09;;;23.32;46.62
46534;BME280;32260;52.008;4.752;2023-05-28T10:36:10;102276.50;;;23.28;46.76
46534;BME280;32260;52.008;4.752;2023-05-28T10:38:57;102267.47;;;23.27;46.57
46534;BME280;32260;52.008;4.752;2023-05-28T10:41:26;102265.91;;;23.23;46.44
46534;BME280;32260;52.008;4.752;2023-05-28T10:44:05;102272.03;;;23.27;47.18
46534;BME280;32260;52.008;4.752;2023-05-28T10:46:40;102274.81;;;23.25;47.01
46534;BME280;32260;52.008;4.752;2023-05-28T10:49:21;102270.44;;;23.23;46.96
46534;BME280;32260;52.008;4.752;2023-05-28T10:54:41;102275.06;;;23.38;47.10
46534;BME280;32260;52.008;4.752;2023-05-28T11:02:24;102278.28;;;23.63;46.96
46534;BME280;32260;52.008;4.752;2023-05-28T11:04:57;102269.81;;;23.70;46.31
46534;BME280;32260;52.008;4.752;2023-05-28T11:07:33;102272.50;;;23.70;45.85
46534;BME280;32260;52.008;4.752;2023-05-28T11:10:00;102264.53;;;23.67;45.71
46534;BME280;32260;52.008;4.752;2023-05-28T11:12:28;102260.41;;;23.78;45.94
46534;BME280;32260;52.008;4.752;2023-05-28T11:14:54;102261.47;;;23.91;45.94
46534;BME280;32260;52.008;4.752;2023-05-28T11:17:20;102259.97;;;24.03;46.03
46534;BME280;32260;52.008;4.752;2023-05-28T11:19:49;102266.97;;;24.07;44.96
46534;BME280;32260;52.008;4.752;2023-05-28T11:22:17;102266.63;;;24.13;45.15
46534;BME280;32260;52.008;4.752;2023-05-28T11:25:03;102263.25;;;24.26;45.10
46534;BME280;32260;52.008;4.752;2023-05-28T11:27:31;102266.19;;;24.21;44.89
46534;BME280;32260;52.008;4.752;2023-05-28T11:30:01;102276.97;;;24.22;45.50
46534;BME280;32260;52.008;4.752;2023-05-28T11:32:31;102268.13;;;24.19;45.71
46534;BME280;32260;52.008;4.752;2023-05-28T11:34:58;102268.03;;;24.20;45.56
46534;BME280;32260;52.008;4.752;2023-05-28T11:37:28;102268.19;;;24.17;45.19
46534;BME280;32260;52.008;4.752;2023-05-28T11:39:56;102272.22;;;24.10;45.51
46534;BME280;32260;52.008;4.752;2023-05-28T11:42:24;102271.19;;;24.13;45.66
46534;BME280;32260;52.008;4.752;2023-05-28T11:44:51;102271.88;;;24.16;45.33
46534;BME280;32260;52.008;4.752;2023-05-28T11:47:18;102270.94;;;24.00;45.81
46534;BME280;32260;52.008;4.752;2023-05-28T11:49:45;102270.00;;;24.01;45.49
46534;BME280;32260;52.008;4.752;2023-05-28T11:52:13;102272.38;;;24.07;45.46
46534;BME280;32260;52.008;4.752;2023-05-28T11:54:41;102268.19;;;24.17;45.16
46534;BME280;32260;52.008;4.752;2023-05-28T11:57:08;102267.44;;;24.31;45.37
46534;BME280;32260;52.008;4.752;2023-05-28T11:59:35;102266.31;;;24.51;45.11
46534;BME280;32260;52.008;4.752;2023-05-28T12:02:17;102257.69;;;24.77;44.14
46534;BME280;32260;52.008;4.752;2023-05-28T12:05:01;102254.75;;;24.96;44.39
46534;BME280;32260;52.008;4.752;2023-05-28T12:07:28;102259.75;;;25.03;43.90
46534;BME280;32260;52.008;4.752;2023-05-28T12:10:11;102257.19;;;25.16;43.00
46534;BME280;32260;52.008;4.752;2023-05-28T12:12:42;102250.50;;;25.22;42.86
46534;BME280;32260;52.008;4.752;2023-05-28T12:15:09;102251.88;;;25.29;41.95
46534;BME280;32260;52.008;4.752;2023-05-28T12:17:36;102257.84;;;25.36;41.60
46534;BME280;32260;52.008;4.752;2023-05-28T12:20:06;102254.84;;;25.41;42.00
46534;BME280;32260;52.008;4.752;2023-05-28T12:22:33;102258.78;;;25.35;41.61
46534;BME280;32260;52.008;4.752;2023-05-28T12:25:00;102251.28;;;25.24;41.02
46534;BME280;32260;52.008;4.752;2023-05-28T12:27:26;102257.78;;;25.22;41.22
46534;BME280;32260;52.008;4.752;2023-05-28T12:29:52;102246.84;;;25.23;41.96
46534;BME280;32260;52.008;4.752;2023-05-28T12:32:18;102248.31;;;25.29;41.34
46534;BME280;32260;52.008;4.752;2023-05-28T12:34:45;102250.50;;;25.38;41.55
46534;BME280;32260;52.008;4.752;2023-05-28T12:37:11;102237.50;;;25.43;41.31
46534;BME280;32260;52.008;4.752;2023-05-28T12:39:38;102236.75;;;25.56;41.42
46534;BME280;32260;52.008;4.752;2023-05-28T12:42:04;102243.28;;;25.67;40.39
46534;BME280;32260;52.008;4.752;2023-05-28T12:44:32;102234.88;;;25.72;40.26
46534;BME280;32260;52.008;4.752;2023-05-28T12:46:58;102233.22;;;25.70;39.35
46534;BME280;32260;52.008;4.752;2023-05-28T12:49:24;102233.13;;;25.71;40.10
46534;BME280;32260;52.008;4.752;2023-05-28T12:51:50;102237.38;;;25.75;40.27
46534;BME280;32260;52.008;4.752;2023-05-28T12:54:16;102241.03;;;25.74;40.25
46534;BME280;32260;52.008;4.752;2023-05-28T12:56:42;102239.81;;;25.80;40.46
46534;BME280;32260;52.008;4.752;2023-05-28T12:59:19;102238.84;;;25.81;40.63